UTA133 UWUU-UWKD
Flight info
| Callsign | UTA133 |
|---|---|
| Flight time | N/A |
| Altitude | 16000 |
| Route | N0240F160 TILMU N985 ORTIM |
| Aircraft | AN24/M-I/L |
Departure
| Time | 2026-04-21 14:35 |
|---|---|
| Airport | Ufa International Airport (UWUU) |
Arrival
| Time | N/A |
|---|---|
| Airport | Kazan International Airport (UWKD) |
| Time | Latitude | Longitude | Altitude | Speed | Heading |
|---|---|---|---|---|---|
| 2026-04-21 13:43 | 54.56115 | 55.88686 | 390 ft | 0 kts | 59° |
| 2026-04-21 14:29 | 54.56123 | 55.88699 | 390 ft | 2 kts | 15° |
| 2026-04-21 14:29 | 54.56145 | 55.88665 | 389 ft | 7 kts | 311° |
| 2026-04-21 14:29 | 54.56133 | 55.88536 | 385 ft | 10 kts | 282° |
| 2026-04-21 14:29 | 54.56191 | 55.88462 | 384 ft | 18 kts | 331° |
| 2026-04-21 14:30 | 54.56293 | 55.88363 | 382 ft | 15 kts | 330° |
| 2026-04-21 14:30 | 54.56390 | 55.88268 | 380 ft | 21 kts | 329° |
| 2026-04-21 14:30 | 54.56396 | 55.88093 | 379 ft | 14 kts | 239° |
| 2026-04-21 14:30 | 54.56347 | 55.87945 | 380 ft | 13 kts | 238° |
| 2026-04-21 14:31 | 54.56288 | 55.87765 | 383 ft | 15 kts | 243° |
| 2026-04-21 14:31 | 54.56247 | 55.87638 | 388 ft | 13 kts | 240° |
| 2026-04-21 14:31 | 54.56210 | 55.87528 | 392 ft | 6 kts | 239° |
| 2026-04-21 14:31 | 54.56172 | 55.87415 | 395 ft | 22 kts | 239° |
| 2026-04-21 14:32 | 54.56076 | 55.87132 | 404 ft | 31 kts | 245° |
| 2026-04-21 14:32 | 54.55985 | 55.86845 | 411 ft | 22 kts | 240° |
| 2026-04-21 14:32 | 54.55918 | 55.86640 | 412 ft | 16 kts | 238° |
| 2026-04-21 14:32 | 54.55859 | 55.86460 | 413 ft | 15 kts | 241° |
| 2026-04-21 14:33 | 54.55801 | 55.86397 | 414 ft | 7 kts | 156° |
| 2026-04-21 14:33 | 54.55765 | 55.86431 | 416 ft | 8 kts | 150° |
| 2026-04-21 14:33 | 54.55757 | 55.86438 | 416 ft | 0 kts | 151° |
| 2026-04-21 14:34 | 54.55680 | 55.86509 | 419 ft | 44 kts | 153° |
| 2026-04-21 14:34 | 54.55214 | 55.86962 | 431 ft | 104 kts | 150° |
| 2026-04-21 14:35 | 54.54490 | 55.87693 | 489 ft | 131 kts | 155° |
| 2026-04-21 14:35 | 54.53653 | 55.88401 | 777 ft | 143 kts | 161° |
| 2026-04-21 14:35 | 54.52714 | 55.89163 | 1084 ft | 154 kts | 161° |
| 2026-04-21 14:35 | 54.51683 | 55.89998 | 1273 ft | 172 kts | 160° |
| 2026-04-21 14:36 | 54.50604 | 55.90883 | 1679 ft | 173 kts | 160° |
| 2026-04-21 14:36 | 54.49550 | 55.91893 | 2059 ft | 178 kts | 150° |
| 2026-04-21 14:36 | 54.48687 | 55.93486 | 2222 ft | 196 kts | 127° |
| 2026-04-21 14:36 | 54.48246 | 55.95811 | 2452 ft | 207 kts | 101° |
| 2026-04-21 14:37 | 54.48378 | 55.98265 | 2775 ft | 210 kts | 74° |
| 2026-04-21 14:37 | 54.49077 | 56.00418 | 3116 ft | 206 kts | 47° |
| 2026-04-21 14:37 | 54.50229 | 56.01822 | 3288 ft | 208 kts | 19° |
| 2026-04-21 14:37 | 54.51616 | 56.02296 | 3574 ft | 200 kts | 354° |
| 2026-04-21 14:38 | 54.52924 | 56.01855 | 3851 ft | 189 kts | 330° |
| 2026-04-21 14:38 | 54.53992 | 56.00594 | 4101 ft | 183 kts | 310° |
| 2026-04-21 14:38 | 54.54856 | 55.99053 | 4408 ft | 180 kts | 305° |
| 2026-04-21 14:38 | 54.55676 | 55.97432 | 4691 ft | 180 kts | 303° |
| 2026-04-21 14:39 | 54.56473 | 55.95773 | 4976 ft | 179 kts | 300° |
| 2026-04-21 14:39 | 54.57198 | 55.94091 | 5309 ft | 175 kts | 298° |
| 2026-04-21 14:39 | 54.57919 | 55.92376 | 5558 ft | 178 kts | 297° |
| 2026-04-21 14:39 | 54.58608 | 55.90622 | 5841 ft | 176 kts | 294° |
| 2026-04-21 14:40 | 54.59225 | 55.88799 | 6177 ft | 173 kts | 290° |
| 2026-04-21 14:40 | 54.59783 | 55.86999 | 6448 ft | 173 kts | 288° |
| 2026-04-21 14:40 | 54.60296 | 55.85130 | 6660 ft | 173 kts | 281° |
| 2026-04-21 14:40 | 54.60552 | 55.83178 | 6990 ft | 165 kts | 271° |
| 2026-04-21 14:41 | 54.60710 | 55.81224 | 7265 ft | 164 kts | 269° |
| 2026-04-21 14:41 | 54.60816 | 55.79261 | 7509 ft | 165 kts | 266° |
| 2026-04-21 14:41 | 54.60876 | 55.77303 | 7806 ft | 163 kts | 265° |
| 2026-04-21 14:41 | 54.60906 | 55.75380 | 8101 ft | 161 kts | 264° |
| 2026-04-21 14:42 | 54.60921 | 55.73441 | 8312 ft | 164 kts | 264° |
| 2026-04-21 14:42 | 54.60918 | 55.71479 | 8570 ft | 163 kts | 263° |
| 2026-04-21 14:42 | 54.60969 | 55.69553 | 8873 ft | 164 kts | 272° |
| 2026-04-21 14:42 | 54.61206 | 55.67622 | 9144 ft | 164 kts | 274° |
| 2026-04-21 14:43 | 54.61428 | 55.65683 | 9417 ft | 164 kts | 273° |
| 2026-04-21 14:43 | 54.61627 | 55.63766 | 9680 ft | 162 kts | 272° |
| 2026-04-21 14:43 | 54.61830 | 55.61891 | 10000 ft | 160 kts | 274° |
| 2026-04-21 14:43 | 54.62044 | 55.60015 | 10252 ft | 160 kts | 273° |
| 2026-04-21 14:44 | 54.62254 | 55.58134 | 10499 ft | 160 kts | 273° |
| 2026-04-21 14:44 | 54.62463 | 55.56246 | 10758 ft | 160 kts | 273° |
| 2026-04-21 14:44 | 54.62674 | 55.54356 | 10998 ft | 160 kts | 273° |
| 2026-04-21 14:44 | 54.62881 | 55.52490 | 11228 ft | 160 kts | 273° |
| 2026-04-21 14:45 | 54.63090 | 55.50605 | 11469 ft | 160 kts | 272° |
| 2026-04-21 14:45 | 54.63295 | 55.48743 | 11686 ft | 161 kts | 272° |
| 2026-04-21 14:45 | 54.63536 | 55.46850 | 11917 ft | 162 kts | 275° |
| 2026-04-21 14:45 | 54.63811 | 55.44963 | 12140 ft | 162 kts | 275° |
| 2026-04-21 14:46 | 54.64075 | 55.43095 | 12359 ft | 162 kts | 275° |
| 2026-04-21 14:46 | 54.64350 | 55.41185 | 12580 ft | 163 kts | 276° |
| 2026-04-21 14:46 | 54.64640 | 55.39297 | 12789 ft | 163 kts | 276° |
| 2026-04-21 14:46 | 54.64928 | 55.37409 | 13003 ft | 163 kts | 275° |
| 2026-04-21 14:47 | 54.65214 | 55.35523 | 13223 ft | 163 kts | 275° |
| 2026-04-21 14:47 | 54.65501 | 55.33647 | 13445 ft | 162 kts | 275° |
| 2026-04-21 14:47 | 54.65787 | 55.31773 | 13664 ft | 162 kts | 275° |
| 2026-04-21 14:47 | 54.66069 | 55.29914 | 13870 ft | 162 kts | 275° |
| 2026-04-21 14:48 | 54.66353 | 55.28042 | 14069 ft | 162 kts | 275° |
| 2026-04-21 14:48 | 54.66637 | 55.26161 | 14257 ft | 162 kts | 274° |
| 2026-04-21 14:48 | 54.66924 | 55.24259 | 14441 ft | 163 kts | 274° |
| 2026-04-21 14:48 | 54.67207 | 55.22382 | 14628 ft | 163 kts | 274° |
| 2026-04-21 14:49 | 54.67490 | 55.20504 | 14809 ft | 162 kts | 274° |
| 2026-04-21 14:49 | 54.67773 | 55.18630 | 15004 ft | 162 kts | 273° |
| 2026-04-21 14:49 | 54.68058 | 55.16748 | 15204 ft | 161 kts | 274° |
| 2026-04-21 14:49 | 54.68338 | 55.14888 | 15386 ft | 161 kts | 273° |
| 2026-04-21 14:50 | 54.68527 | 55.13630 | 15507 ft | 161 kts | 273° |
| 2026-04-21 14:50 | 54.68902 | 55.11102 | 15631 ft | 167 kts | 273° |
| 2026-04-21 14:50 | 54.69191 | 55.09144 | 15712 ft | 171 kts | 273° |
| 2026-04-21 14:50 | 54.69492 | 55.07102 | 15766 ft | 176 kts | 274° |
| 2026-04-21 14:51 | 54.69796 | 55.05028 | 15781 ft | 181 kts | 274° |
| 2026-04-21 14:51 | 54.70107 | 55.02904 | 15718 ft | 188 kts | 274° |
| 2026-04-21 14:51 | 54.70436 | 55.00676 | 15742 ft | 190 kts | 275° |
| 2026-04-21 14:51 | 54.70765 | 54.98474 | 15799 ft | 190 kts | 275° |
| 2026-04-21 14:52 | 54.71092 | 54.96257 | 15727 ft | 196 kts | 275° |
| 2026-04-21 14:52 | 54.71433 | 54.93935 | 15714 ft | 199 kts | 275° |
| 2026-04-21 14:52 | 54.71774 | 54.91636 | 15733 ft | 199 kts | 275° |
| 2026-04-21 14:52 | 54.72116 | 54.89330 | 15753 ft | 199 kts | 275° |
| 2026-04-21 14:53 | 54.72464 | 54.86978 | 15728 ft | 202 kts | 275° |
| 2026-04-21 14:53 | 54.72808 | 54.84634 | 15736 ft | 202 kts | 275° |
| 2026-04-21 14:53 | 54.73150 | 54.82312 | 15758 ft | 202 kts | 275° |
| 2026-04-21 14:53 | 54.73495 | 54.79956 | 15746 ft | 203 kts | 275° |
| 2026-04-21 14:54 | 54.73843 | 54.77581 | 15735 ft | 204 kts | 275° |
| 2026-04-21 14:54 | 54.74189 | 54.75207 | 15733 ft | 205 kts | 276° |
| 2026-04-21 14:54 | 54.74537 | 54.72819 | 15727 ft | 206 kts | 276° |
| 2026-04-21 14:54 | 54.74887 | 54.70421 | 15696 ft | 207 kts | 276° |
| 2026-04-21 14:55 | 54.75241 | 54.67992 | 15725 ft | 206 kts | 276° |
| 2026-04-21 14:55 | 54.75589 | 54.65619 | 15726 ft | 206 kts | 276° |
| 2026-04-21 14:55 | 54.75940 | 54.63220 | 15735 ft | 206 kts | 276° |
| 2026-04-21 14:55 | 54.76291 | 54.60812 | 15712 ft | 207 kts | 276° |
| 2026-04-21 14:56 | 54.76642 | 54.58415 | 15723 ft | 206 kts | 277° |
| 2026-04-21 14:56 | 54.76989 | 54.56031 | 15749 ft | 205 kts | 277° |
| 2026-04-21 14:56 | 54.77240 | 54.54361 | 15735 ft | 206 kts | 277° |
| 2026-04-21 14:56 | 54.77609 | 54.51988 | 15726 ft | 207 kts | 277° |
| 2026-04-21 14:57 | 54.77983 | 54.49589 | 15733 ft | 206 kts | 277° |